Time;durP1;ratioP1;P1;durP2;ratioP2;P2;SDS_P1;SDS_P2;PMS_P1;PMS_P2;Temp;Humidity;BMP_temperature;BMP_pressure;BME280_temperature;BME280_humidity;BME280_pressure;Samples;Min_cycle;Max_cycle;Signal;HPM_P1;HPM_P2
2022/03/31 00:00:22;;;;;;;20.10;8.35;;;;;;;5.67;71.72;99974.78;5066984;28;20126;-71
2022/03/31 00:02:47;;;;;;;20.10;8.60;;;;;;;5.55;72.92;99969.44;5064151;28;20049;-71
2022/03/31 00:05:13;;;;;;;20.83;8.80;;;;;;;5.50;73.48;99971.97;5065383;28;20017;-72
2022/03/31 00:07:59;;;;;;;19.92;8.55;;;;;;;5.59;73.04;99969.47;5065013;28;20032;-71
2022/03/31 00:10:30;;;;;;;20.20;8.80;;;;;;;5.50;73.46;99969.34;5059322;28;20063;-71
2022/03/31 00:12:57;;;;;;;19.60;8.63;;;;;;;5.50;73.47;99968.50;5059358;28;20029;-72
2022/03/31 00:15:24;;;;;;;19.00;8.20;;;;;;;5.49;73.70;99975.50;5066598;28;20028;-70
2022/03/31 00:17:50;;;;;;;22.70;8.82;;;;;;;5.54;73.49;99972.91;5063529;28;20024;-72
2022/03/31 00:20:15;;;;;;;19.70;8.90;;;;;;;5.61;73.04;99984.31;5065379;28;20104;-69
2022/03/31 00:22:41;;;;;;;20.33;9.60;;;;;;;5.74;72.22;99986.25;5046999;28;20024;-69
2022/03/31 00:25:08;;;;;;;19.92;8.65;;;;;;;5.76;71.76;99990.63;5063983;28;20025;-71
2022/03/31 00:27:34;;;;;;;20.27;9.13;;;;;;;5.80;71.64;99990.69;5065455;28;20024;-71
2022/03/31 00:30:00;;;;;;;20.70;9.27;;;;;;;5.83;71.95;99986.31;5063372;28;20040;-71
2022/03/31 00:32:25;;;;;;;20.65;9.55;;;;;;;5.88;71.76;99984.66;5066486;28;20024;-70
2022/03/31 00:34:50;;;;;;;20.48;9.20;;;;;;;5.86;71.69;99980.25;5062866;28;20086;-64
2022/03/31 00:37:16;;;;;;;21.73;9.93;;;;;;;5.86;71.38;99975.84;5065287;28;20021;-65
2022/03/31 00:39:42;;;;;;;21.48;10.10;;;;;;;5.80;71.21;99967.94;5064391;28;20063;-63
2022/03/31 00:42:08;;;;;;;22.33;10.93;;;;;;;5.73;71.10;99971.38;5063709;28;20017;-63
2022/03/31 00:44:33;;;;;;;24.35;10.80;;;;;;;5.72;71.68;99973.13;5065143;28;20049;-63
2022/03/31 00:46:59;;;;;;;21.70;10.48;;;;;;;5.71;72.33;99970.47;5062839;28;20357;-63
2022/03/31 00:49:25;;;;;;;21.67;10.50;;;;;;;5.74;71.72;99970.50;5065969;28;20168;-64
2022/03/31 00:51:54;;;;;;;22.08;10.88;;;;;;;5.68;72.00;99975.66;5061862;28;20072;-63
2022/03/31 00:54:22;;;;;;;22.23;11.30;;;;;;;5.64;72.27;99974.78;5065511;28;20103;-63
2022/03/31 00:56:49;;;;;;;22.15;11.05;;;;;;;5.71;72.43;99971.34;5063271;28;20357;-63
2022/03/31 00:59:17;;;;;;;22.60;11.60;;;;;;;5.74;72.26;99978.38;5063983;28;20042;-64
2022/03/31 01:01:44;;;;;;;22.48;11.15;;;;;;;5.72;72.43;99974.84;5062314;28;20037;-63
2022/03/31 01:04:11;;;;;;;22.95;11.57;;;;;;;5.65;72.66;99973.91;5065101;28;20031;-62
2022/03/31 01:06:37;;;;;;;22.25;11.60;;;;;;;5.64;72.97;99966.91;5063136;28;20375;-63
2022/03/31 01:09:04;;;;;;;23.33;11.88;;;;;;;5.63;73.25;99962.50;5064152;28;20025;-63
2022/03/31 01:11:30;;;;;;;23.02;11.82;;;;;;;5.66;73.12;99962.53;5063973;28;20025;-63
2022/03/31 01:13:55;;;;;;;23.17;11.68;;;;;;;5.65;73.69;99965.16;5063279;28;20037;-63
2022/03/31 01:16:21;;;;;;;23.30;12.23;;;;;;;5.60;74.37;99952.00;5065009;28;20024;-63
2022/03/31 01:18:47;;;;;;;22.65;11.45;;;;;;;5.62;74.40;99947.66;5061700;28;20033;-72
2022/03/31 01:21:13;;;;;;;22.45;11.02;;;;;;;5.63;74.18;99949.41;5065317;28;20032;-72
2022/03/31 01:23:38;;;;;;;21.80;11.10;;;;;;;5.55;74.16;99941.47;5062443;28;20040;-63
2022/03/31 01:26:10;;;;;;;22.38;11.38;;;;;;;5.49;74.48;99943.13;5063872;28;20052;-64
2022/03/31 01:28:41;;;;;;;22.73;11.07;;;;;;;5.46;74.89;99944.00;5062860;28;20031;-63
2022/03/31 01:31:09;;;;;;;22.58;11.55;;;;;;;5.40;75.65;99946.53;5063969;28;20503;-65
2022/03/31 01:33:36;;;;;;;23.08;12.10;;;;;;;5.43;76.31;99943.06;5062651;28;20507;-72
2022/03/31 01:36:05;;;;;;;23.30;12.45;;;;;;;5.38;76.20;99946.50;5063348;28;20091;-70
2022/03/31 01:38:31;;;;;;;22.63;12.25;;;;;;;5.38;76.86;99943.03;5063300;28;20024;-69
2022/03/31 01:40:57;;;;;;;23.80;12.70;;;;;;;5.36;77.17;99935.16;5062621;28;20379;-67
2022/03/31 01:43:22;;;;;;;24.13;13.05;;;;;;;5.38;77.14;99935.16;5064368;28;20399;-71
2022/03/31 01:45:52;;;;;;;23.55;12.00;;;;;;;5.44;77.30;99932.59;5061586;28;20063;-69
2022/03/31 01:48:17;;;;;;;24.33;12.43;;;;;;;5.37;78.44;99939.53;5057490;28;20068;-72
2022/03/31 01:50:43;;;;;;;24.42;13.07;;;;;;;5.31;79.27;99933.34;5064600;28;20107;-72
2022/03/31 01:53:09;;;;;;;24.30;12.85;;;;;;;5.31;81.20;99930.72;5061991;28;20036;-70
2022/03/31 01:55:35;;;;;;;24.98;13.30;;;;;;;5.30;81.01;99931.56;5063344;28;20029;-72
2022/03/31 01:58:00;;;;;;;24.35;13.85;;;;;;;5.15;82.27;99927.91;5064916;28;20074;-71
2022/03/31 02:00:25;;;;;;;25.40;13.63;;;;;;;5.11;83.38;99920.00;5062614;28;20039;-69
2022/03/31 02:02:51;;;;;;;25.95;14.38;;;;;;;5.12;85.18;99922.63;5061829;28;20067;-66
2022/03/31 02:05:16;;;;;;;27.13;15.05;;;;;;;5.09;85.72;99925.22;5064339;28;20021;-70
2022/03/31 02:07:41;;;;;;;26.63;14.60;;;;;;;5.05;86.87;99929.56;5060869;28;20035;-70
2022/03/31 02:10:12;;;;;;;27.83;15.13;;;;;;;5.07;88.29;99913.84;5064289;28;20032;-68
2022/03/31 02:12:38;;;;;;;25.92;14.35;;;;;;;5.06;89.00;99915.56;5061168;28;20063;-67
2022/03/31 02:15:05;;;;;;;26.95;15.27;;;;;;;4.97;90.55;99909.38;5063837;28;20071;-71
2022/03/31 02:17:30;;;;;;;26.13;14.88;;;;;;;4.91;91.51;99909.25;5061740;28;20085;-67
2022/03/31 02:19:56;;;;;;;27.20;15.75;;;;;;;4.80;93.96;99910.00;5062873;28;20025;-71
2022/03/31 02:22:22;;;;;;;27.17;15.40;;;;;;;4.80;93.39;99899.53;5063093;28;20422;-71
2022/03/31 02:24:48;;;;;;;27.65;15.30;;;;;;;4.79;93.72;99899.53;5061411;28;20107;-72
2022/03/31 02:27:13;;;;;;;26.67;15.25;;;;;;;4.77;94.54;99904.75;5064277;28;20056;-70
2022/03/31 02:29:39;;;;;;;26.75;15.20;;;;;;;4.79;95.19;99908.28;5060687;28;20039;-68
2022/03/31 02:32:06;;;;;;;26.15;14.27;;;;;;;4.78;95.48;99909.13;5063655;28;20103;-71
2022/03/31 02:34:31;;;;;;;24.92;13.38;;;;;;;4.82;96.29;99892.59;5061661;28;20032;-72
2022/03/31 02:36:56;;;;;;;26.35;14.07;;;;;;;4.83;96.16;99901.31;5062094;28;20019;-71
2022/03/31 02:39:22;;;;;;;25.13;13.98;;;;;;;4.80;96.86;99898.66;5063325;28;20093;-72
2022/03/31 02:41:47;;;;;;;25.13;14.15;;;;;;;4.75;97.88;99898.63;5062426;28;20103;-71
2022/03/31 02:44:13;;;;;;;25.90;14.13;;;;;;;4.76;100.00;99897.75;5061548;28;20049;-67
2022/03/31 02:46:38;;;;;;;24.15;12.98;;;;;;;4.70;100.00;99892.44;5063969;28;20127;-68
2022/03/31 02:49:04;;;;;;;24.17;12.07;;;;;;;4.66;100.00;99895.84;5060461;28;20060;-72
2022/03/31 02:51:29;;;;;;;24.52;12.43;;;;;;;4.63;100.00;99893.19;5063952;28;20468;-72
2022/03/31 02:56:39;;;;;;;25.02;13.45;;;;;;;4.53;100.00;99884.38;5058821;28;20140;-72
2022/03/31 02:59:07;;;;;;;24.40;13.65;;;;;;;4.46;100.00;99883.38;5063940;28;20107;-72
2022/03/31 03:01:33;;;;;;;25.60;13.82;;;;;;;4.43;100.00;99883.34;5042678;28;20032;-70
2022/03/31 03:03:58;;;;;;;24.98;14.07;;;;;;;4.40;100.00;99882.41;5064324;28;20025;-71
2022/03/31 03:06:25;;;;;;;25.27;14.18;;;;;;;4.39;100.00;99881.53;5060495;28;20056;-67
2022/03/31 03:08:50;;;;;;;25.92;14.85;;;;;;;4.39;100.00;99878.94;5063143;28;20163;-70
2022/03/31 03:11:17;;;;;;;24.73;13.45;;;;;;;4.29;100.00;99880.53;5061909;28;20111;-70
2022/03/31 03:13:44;;;;;;;22.73;12.77;;;;;;;4.23;100.00;99874.34;5061956;28;20033;-72
2022/03/31 03:16:09;;;;;;;22.38;11.57;;;;;;;4.15;100.00;99880.34;5066321;28;20103;-71
2022/03/31 03:18:35;;;;;;;20.92;10.63;;;;;;;4.08;100.00;99874.97;5064838;28;20117;-64
2022/03/31 03:21:01;;;;;;;20.55;10.13;;;;;;;4.03;100.00;99874.03;5067812;28;20482;-64
2022/03/31 03:23:27;;;;;;;19.90;9.25;;;;;;;3.97;100.00;99872.19;5060020;28;20534;-64
2022/03/31 03:25:52;;;;;;;21.27;9.68;;;;;;;3.95;100.00;99876.53;5067310;28;20036;-63
2022/03/31 03:28:18;;;;;;;20.40;10.00;;;;;;;3.92;100.00;99879.97;5065279;28;20021;-71
2022/03/31 03:30:43;;;;;;;21.05;9.48;;;;;;;3.88;100.00;99885.13;5065419;28;20487;-64
2022/03/31 03:33:08;;;;;;;20.52;9.30;;;;;;;3.78;100.00;99877.13;5066274;28;20032;-64
2022/03/31 03:35:34;;;;;;;19.55;8.75;;;;;;;3.78;100.00;99876.25;5064336;28;20028;-63
2022/03/31 03:38:00;;;;;;;19.52;8.65;;;;;;;3.63;100.00;99877.75;5067191;28;20040;-63
2022/03/31 03:40:26;;;;;;;19.58;8.45;;;;;;;3.62;100.00;99876.00;5067042;28;20024;-66
2022/03/31 03:42:53;;;;;;;18.83;7.80;;;;;;;3.64;100.00;99876.00;5045728;28;20045;-63
2022/03/31 03:45:19;;;;;;;18.27;7.57;;;;;;;3.66;100.00;99879.56;5066595;28;20549;-66
2022/03/31 03:47:44;;;;;;;17.33;6.63;;;;;;;3.62;100.00;99881.22;5064755;28;20029;-68
2022/03/31 03:50:11;;;;;;;16.55;6.43;;;;;;;3.45;100.00;99877.44;5065023;28;20043;-71
2022/03/31 03:52:36;;;;;;;16.67;6.60;;;;;;;3.36;100.00;99878.13;5066273;28;20082;-69
2022/03/31 03:55:02;;;;;;;16.65;6.70;;;;;;;3.32;100.00;99889.41;5064030;28;20020;-66
2022/03/31 03:57:28;;;;;;;16.67;6.38;;;;;;;3.30;100.00;99888.50;5064104;28;20021;-70
2022/03/31 03:59:53;;;;;;;17.27;6.57;;;;;;;3.26;100.00;99886.66;5067040;28;20489;-68
2022/03/31 04:02:18;;;;;;;17.15;6.72;;;;;;;3.07;100.00;99885.44;5063463;28;20033;-67
2022/03/31 04:04:44;;;;;;;17.90;7.03;;;;;;;3.04;100.00;99880.16;5065755;28;20025;-69
2022/03/31 04:07:09;;;;;;;17.20;6.70;;;;;;;3.03;100.00;99884.50;5065013;28;20463;-68
2022/03/31 04:09:34;;;;;;;16.42;6.45;;;;;;;3.02;100.00;99884.47;5064350;28;20040;-65
2022/03/31 04:12:00;;;;;;;17.65;6.90;;;;;;;2.96;100.00;99887.84;5065969;28;20027;-72
2022/03/31 04:14:25;;;;;;;17.77;6.47;;;;;;;2.90;100.00;99887.72;5063126;28;20035;-71
2022/03/31 04:16:51;;;;;;;18.00;7.00;;;;;;;2.93;100.00;99888.66;5063081;28;20036;-69
2022/03/31 04:19:16;;;;;;;17.23;6.72;;;;;;;2.88;100.00;99882.44;5066806;28;20025;-65
2022/03/31 04:21:42;;;;;;;17.10;6.93;;;;;;;2.81;100.00;99883.22;5063572;28;20028;-70
2022/03/31 04:24:07;;;;;;;18.27;6.65;;;;;;;2.75;100.00;99883.06;5065496;28;20376;-66
2022/03/31 04:26:33;;;;;;;18.20;7.10;;;;;;;2.73;100.00;99890.84;5064396;28;20060;-63
2022/03/31 04:29:01;;;;;;;17.75;6.68;;;;;;;2.68;100.00;99882.06;5063834;28;20021;-63
2022/03/31 04:31:27;;;;;;;17.60;6.65;;;;;;;2.56;100.00;99894.84;5047394;28;20028;-63
2022/03/31 04:33:52;;;;;;;17.38;6.55;;;;;;;2.53;100.00;99886.94;5063155;28;20031;-63
2022/03/31 04:36:18;;;;;;;16.83;6.20;;;;;;;2.50;100.00;99892.09;5065466;28;20442;-63
2022/03/31 04:38:43;;;;;;;15.98;6.13;;;;;;;2.39;100.00;99886.66;5066129;28;20039;-63
2022/03/31 04:41:08;;;;;;;16.05;6.15;;;;;;;2.44;100.00;99882.41;5062889;28;20025;-63
2022/03/31 04:43:34;;;;;;;15.35;5.80;;;;;;;2.40;100.00;99891.91;5047067;28;20083;-63
2022/03/31 04:45:59;;;;;;;14.65;5.40;;;;;;;2.39;100.00;99890.13;5063984;28;20125;-63
2022/03/31 04:48:25;;;;;;;13.75;5.32;;;;;;;2.35;100.00;99887.44;5064259;28;20064;-63
2022/03/31 04:50:51;;;;;;;15.93;5.75;;;;;;;2.27;100.00;99895.06;5064905;28;20392;-63
2022/03/31 04:53:17;;;;;;;14.27;5.47;;;;;;;2.28;100.00;99895.97;5062439;28;20029;-63
2022/03/31 04:55:43;;;;;;;15.27;5.50;;;;;;;2.25;100.00;99897.63;5065896;28;20059;-63
2022/03/31 04:58:08;;;;;;;15.10;5.70;;;;;;;2.19;100.00;99904.47;5062409;28;20064;-63
2022/03/31 05:00:33;;;;;;;14.93;5.68;;;;;;;2.23;100.00;99898.47;5065633;28;20466;-63
2022/03/31 05:02:59;;;;;;;14.93;5.60;;;;;;;2.28;100.00;99894.22;5063065;28;20413;-63
2022/03/31 05:05:25;;;;;;;14.68;5.70;;;;;;;2.29;100.00;99900.31;5063829;28;20427;-67
2022/03/31 05:07:50;;;;;;;15.13;5.15;;;;;;;2.32;100.00;99896.06;5064026;28;20028;-67
2022/03/31 05:10:16;;;;;;;16.13;6.07;;;;;;;2.22;100.00;99896.69;5062507;28;20118;-67
2022/03/31 05:12:41;;;;;;;15.13;5.40;;;;;;;2.24;100.00;99895.00;5065285;28;20052;-66
2022/03/31 05:15:07;;;;;;;16.23;5.75;;;;;;;2.16;100.00;99899.19;5062154;28;20108;-72
2022/03/31 05:17:34;;;;;;;16.08;5.72;;;;;;;2.13;100.00;99901.72;5064717;28;20027;-68
2022/03/31 05:20:02;;;;;;;16.05;5.90;;;;;;;2.12;100.00;99894.72;5062433;28;20029;-64
2022/03/31 05:22:28;;;;;;;15.35;5.50;;;;;;;2.13;100.00;99897.38;5064079;28;20031;-66
2022/03/31 05:24:53;;;;;;;15.43;5.63;;;;;;;2.15;100.00;99902.63;5063094;28;20028;-68
2022/03/31 05:27:19;;;;;;;14.70;5.30;;;;;;;1.99;100.00;99898.75;5062714;28;20029;-69
2022/03/31 05:29:45;;;;;;;13.45;5.18;;;;;;;2.04;100.00;99899.75;5064816;28;20443;-63
2022/03/31 05:32:11;;;;;;;13.77;4.95;;;;;;;1.91;100.00;99904.69;5061561;28;20394;-64
2022/03/31 05:34:36;;;;;;;14.82;5.22;;;;;;;1.81;100.00;99899.22;5057636;28;20376;-63
2022/03/31 05:37:03;;;;;;;14.18;4.95;;;;;;;1.78;100.00;99904.31;5062177;28;20017;-64
2022/03/31 05:39:29;;;;;;;15.60;5.10;;;;;;;1.85;100.00;99901.03;5057788;28;20509;-63
2022/03/31 05:41:54;;;;;;;12.63;4.90;;;;;;;1.68;100.00;99901.50;5064389;28;20103;-63
2022/03/31 05:44:20;;;;;;;12.40;4.68;;;;;;;1.63;100.00;99904.81;5059269;28;20476;-64
2022/03/31 05:46:46;;;;;;;11.98;4.65;;;;;;;1.59;100.00;99906.47;5058448;28;20056;-64
2022/03/31 05:49:11;;;;;;;13.13;4.80;;;;;;;1.53;100.00;99916.72;5054478;28;20029;-62
2022/03/31 05:51:37;;;;;;;12.98;4.82;;;;;;;1.56;100.00;99911.63;5055785;28;20040;-62
2022/03/31 05:54:03;;;;;;;16.33;5.50;;;;;;;1.49;100.00;99920.97;5056183;28;20025;-62
2022/03/31 05:56:29;;;;;;;14.02;5.03;;;;;;;1.53;100.00;99917.63;5055641;28;20021;-62
2022/03/31 05:58:54;;;;;;;13.65;5.05;;;;;;;1.43;100.00;99906.91;5058886;28;20025;-64
2022/03/31 06:01:20;;;;;;;14.35;5.10;;;;;;;1.41;100.00;99900.78;5056226;28;20040;-63
2022/03/31 06:03:45;;;;;;;15.02;5.32;;;;;;;1.45;100.00;99906.13;5048880;28;20052;-63
2022/03/31 06:06:11;;;;;;;14.90;5.38;;;;;;;1.41;100.00;99892.97;5052275;28;20041;-63
2022/03/31 06:08:36;;;;;;;13.88;5.13;;;;;;;1.38;100.00;99897.28;5055409;28;20029;-62
2022/03/31 06:11:01;;;;;;;16.85;6.10;;;;;;;1.31;100.00;99897.06;5053476;28;20039;-63
2022/03/31 06:13:27;;;;;;;13.90;5.13;;;;;;;1.35;100.00;99883.28;5056314;28;20029;-62
2022/03/31 06:15:54;;;;;;;16.05;5.93;;;;;;;1.37;100.00;99892.03;5060476;28;20104;-62
2022/03/31 06:18:21;;;;;;;15.00;5.40;;;;;;;1.35;100.00;99898.91;5051693;28;20052;-62
2022/03/31 06:20:46;;;;;;;15.07;5.43;;;;;;;1.34;100.00;99902.34;5055972;28;20043;-63
2022/03/31 06:23:11;;;;;;;15.38;5.68;;;;;;;1.37;100.00;99903.31;5035663;28;20404;-63
2022/03/31 06:25:37;;;;;;;17.05;5.97;;;;;;;1.46;100.00;99896.59;5031649;28;20364;-63
2022/03/31 06:28:02;;;;;;;14.50;5.32;;;;;;;1.43;100.00;99901.69;5050412;28;20075;-62
2022/03/31 06:30:28;;;;;;;15.10;5.30;;;;;;;1.48;100.00;99902.72;5055935;28;20033;-63
2022/03/31 06:32:53;;;;;;;14.73;5.40;;;;;;;1.48;100.00;99907.91;5052485;28;20103;-62
2022/03/31 06:35:19;;;;;;;15.77;5.50;;;;;;;1.51;100.00;99910.59;5056024;28;20032;-62
2022/03/31 06:37:45;;;;;;;16.40;6.20;;;;;;;1.57;100.00;99910.75;5058581;28;20035;-62
2022/03/31 06:40:12;;;;;;;16.20;5.90;;;;;;;1.55;100.00;99913.31;5052598;28;20029;-62
2022/03/31 06:42:39;;;;;;;17.98;6.50;;;;;;;1.48;100.00;99914.00;5054975;28;20082;-64
2022/03/31 06:45:08;;;;;;;16.90;6.45;;;;;;;1.48;100.00;99915.75;5052123;28;20488;-64
2022/03/31 06:47:34;;;;;;;16.42;6.07;;;;;;;1.55;100.00;99915.06;5050784;28;20036;-62
2022/03/31 06:50:00;;;;;;;17.50;6.57;;;;;;;1.59;100.00;99905.59;5056327;28;20063;-63
2022/03/31 06:52:25;;;;;;;17.38;6.47;;;;;;;1.62;100.00;99914.38;5058507;28;20447;-63
2022/03/31 06:54:50;;;;;;;16.35;6.43;;;;;;;1.67;100.00;99912.75;5061155;28;20087;-62
2022/03/31 06:57:16;;;;;;;17.33;6.72;;;;;;;1.67;100.00;99912.75;5062543;28;20017;-63
2022/03/31 06:59:41;;;;;;;17.30;6.93;;;;;;;1.69;100.00;99915.41;5053627;28;20423;-61
2022/03/31 07:02:08;;;;;;;17.83;7.30;;;;;;;1.68;100.00;99914.53;5050326;28;20534;-62
2022/03/31 07:04:33;;;;;;;18.15;7.75;;;;;;;1.70;100.00;99911.94;5055163;28;20025;-62
2022/03/31 07:06:58;;;;;;;18.27;7.55;;;;;;;1.69;100.00;99905.88;5062354;28;20029;-63
2022/03/31 07:09:24;;;;;;;19.52;8.30;;;;;;;1.82;100.00;99919.19;5057216;28;20064;-63
2022/03/31 07:11:49;;;;;;;17.90;7.10;;;;;;;1.88;100.00;99912.44;5060544;28;20057;-63
2022/03/31 07:14:15;;;;;;;18.80;7.47;;;;;;;1.95;100.00;99913.44;5059565;28;20487;-64
2022/03/31 07:16:40;;;;;;;17.88;7.30;;;;;;;1.92;100.00;99916.88;5059123;28;20057;-65
2022/03/31 07:19:05;;;;;;;18.00;7.13;;;;;;;1.88;100.00;99914.16;5057480;28;20119;-63
2022/03/31 07:21:31;;;;;;;17.83;7.35;;;;;;;1.85;100.00;99911.44;5058186;28;20047;-63
2022/03/31 07:23:56;;;;;;;18.48;7.88;;;;;;;1.77;100.00;99900.84;5060573;28;20059;-63
2022/03/31 07:26:22;;;;;;;18.35;7.53;;;;;;;1.81;100.00;99907.91;5059831;28;20028;-63
2022/03/31 07:28:48;;;;;;;18.88;7.80;;;;;;;1.97;100.00;99906.56;5056207;28;20472;-63
2022/03/31 07:31:14;;;;;;;17.73;7.30;;;;;;;2.00;100.00;99910.97;5055393;28;20387;-67
2022/03/31 07:33:40;;;;;;;17.85;7.43;;;;;;;2.00;100.00;99908.38;5056809;28;20025;-62
2022/03/31 07:36:07;;;;;;;18.58;7.93;;;;;;;2.03;100.00;99911.03;5060780;28;20024;-62
2022/03/31 07:38:32;;;;;;;18.80;7.30;;;;;;;2.04;100.00;99908.47;5059884;28;20028;-63
2022/03/31 07:40:58;;;;;;;18.40;7.70;;;;;;;2.09;100.00;99909.44;5058796;28;20021;-63
2022/03/31 07:43:24;;;;;;;18.13;7.90;;;;;;;2.13;100.00;99906.94;5059214;28;20052;-63
2022/03/31 07:45:50;;;;;;;17.65;7.55;;;;;;;2.16;100.00;99914.81;5047233;28;20024;-63
2022/03/31 07:48:17;;;;;;;18.08;7.63;;;;;;;2.19;100.00;99917.50;5064978;28;20039;-63
2022/03/31 07:50:43;;;;;;;18.00;7.22;;;;;;;2.11;100.00;99911.22;5066354;28;20031;-63
2022/03/31 07:53:10;;;;;;;17.92;7.57;;;;;;;2.20;100.00;99909.72;5063656;28;20029;-69
2022/03/31 07:55:36;;;;;;;17.48;7.18;;;;;;;2.22;100.00;99905.41;5067027;28;20020;-63
2022/03/31 07:58:02;;;;;;;17.67;7.40;;;;;;;2.26;100.00;99908.97;5063714;28;20036;-63
2022/03/31 08:00:27;;;;;;;17.27;6.97;;;;;;;2.19;100.00;99909.69;5066052;28;20029;-62
2022/03/31 08:02:53;;;;;;;16.98;6.90;;;;;;;2.15;100.00;99907.84;5064391;28;20497;-62
2022/03/31 08:05:39;;;;;;;16.20;6.50;;;;;;;2.16;100.00;99907.00;5065314;28;20139;-62
2022/03/31 08:08:05;;;;;;;16.48;6.38;;;;;;;2.12;100.00;99905.16;5057764;28;20051;-62
2022/03/31 08:10:30;;;;;;;17.05;6.70;;;;;;;2.19;100.00;99909.69;5066691;28;20024;-62
2022/03/31 08:12:56;;;;;;;17.08;6.40;;;;;;;2.17;100.00;99903.53;5063758;28;20432;-62
2022/03/31 08:15:23;;;;;;;16.85;6.70;;;;;;;2.19;100.00;99901.84;5065447;28;20033;-62
2022/03/31 08:17:49;;;;;;;16.90;6.40;;;;;;;2.22;100.00;99905.41;5064757;28;20029;-62
2022/03/31 08:20:15;;;;;;;17.10;6.85;;;;;;;2.25;100.00;99902.00;5064867;28;20055;-62
2022/03/31 08:22:40;;;;;;;17.10;6.60;;;;;;;2.25;100.00;99896.78;5065625;28;20025;-62
2022/03/31 08:25:10;;;;;;;17.90;6.63;;;;;;;2.33;100.00;99905.66;5063055;28;20032;-62
2022/03/31 08:27:36;;;;;;;17.50;6.80;;;;;;;2.41;100.00;99904.09;5066484;28;20513;-62
2022/03/31 08:30:05;;;;;;;16.63;6.53;;;;;;;2.56;100.00;99897.44;5063111;28;20107;-69
2022/03/31 08:32:34;;;;;;;15.95;6.40;;;;;;;2.55;100.00;99893.97;5059116;28;20028;-62
2022/03/31 08:35:01;;;;;;;17.75;6.82;;;;;;;2.63;100.00;99899.34;5058930;28;20021;-65
2022/03/31 08:37:26;;;;;;;16.42;6.50;;;;;;;2.67;100.00;99902.91;5058244;28;20021;-62
2022/03/31 08:39:51;;;;;;;18.35;7.40;;;;;;;2.76;100.00;99895.28;5058609;28;20047;-64
2022/03/31 08:42:17;;;;;;;17.92;7.35;;;;;;;2.75;100.00;99897.00;5060542;28;20028;-63
2022/03/31 08:44:42;;;;;;;19.45;8.10;;;;;;;2.89;100.00;99901.63;5060063;28;20132;-63
2022/03/31 08:47:08;;;;;;;19.17;8.63;;;;;;;2.89;100.00;99904.25;5055625;28;20464;-64
2022/03/31 08:49:35;;;;;;;20.75;9.07;;;;;;;3.06;100.00;99908.06;5058847;28;20035;-64
2022/03/31 08:52:00;;;;;;;20.45;9.75;;;;;;;3.13;100.00;99907.34;5056864;28;20051;-63
2022/03/31 08:54:25;;;;;;;20.25;9.40;;;;;;;3.05;100.00;99913.25;5059684;28;20084;-63
2022/03/31 08:56:53;;;;;;;19.40;8.13;;;;;;;3.14;100.00;99918.66;5055153;28;20056;-63
2022/03/31 08:59:18;;;;;;;17.88;7.20;;;;;;;3.19;100.00;99921.34;5060206;28;20438;-65
2022/03/31 09:01:44;;;;;;;16.80;6.43;;;;;;;3.26;100.00;99915.41;5056109;28;20032;-63
2022/03/31 09:04:23;;;;;;;17.58;7.00;;;;;;;3.45;100.00;99920.13;5057531;28;20388;-64
2022/03/31 09:06:49;;;;;;;18.00;7.70;;;;;;;3.60;100.00;99900.38;5063865;28;20036;-63
2022/03/31 09:09:16;;;;;;;18.05;7.10;;;;;;;3.70;100.00;99917.97;5063412;28;20055;-64
2022/03/31 09:11:46;;;;;;;16.88;6.72;;;;;;;3.71;100.00;99922.31;5064024;28;20065;-64
2022/03/31 09:14:12;;;;;;;17.58;6.90;;;;;;;3.75;100.00;99923.28;5064829;28;20024;-73
2022/03/31 09:16:39;;;;;;;17.45;7.10;;;;;;;3.91;100.00;99925.28;5062966;28;20036;-64
2022/03/31 09:19:09;;;;;;;17.13;7.00;;;;;;;4.00;100.00;99919.31;5064887;28;20024;-62
2022/03/31 09:21:48;;;;;;;17.92;6.80;;;;;;;3.97;100.00;99908.81;5062445;28;20033;-62
2022/03/31 09:24:15;;;;;;;16.40;6.72;;;;;;;3.93;100.00;99914.84;5058055;28;20040;-63
2022/03/31 09:26:45;;;;;;;17.13;6.50;;;;;;;3.86;100.00;99918.22;5058500;28;20407;-63
2022/03/31 09:29:12;;;;;;;16.95;6.20;;;;;;;3.73;100.00;99918.03;5052202;28;20021;-64
2022/03/31 09:31:38;;;;;;;17.77;6.50;;;;;;;3.65;100.00;99915.25;5055390;28;20031;-63
2022/03/31 09:34:03;;;;;;;17.30;6.40;;;;;;;3.71;100.00;99921.44;5050491;28;20028;-63
2022/03/31 09:36:29;;;;;;;17.00;6.50;;;;;;;3.73;100.00;99920.63;5059103;28;20049;-62
2022/03/31 09:39:00;;;;;;;17.02;6.32;;;;;;;3.72;100.00;99929.31;5057673;28;20398;-64
2022/03/31 09:41:37;;;;;;;17.50;6.63;;;;;;;3.78;100.00;99926.81;5060041;28;20035;-63
2022/03/31 09:44:23;;;;;;;17.67;6.63;;;;;;;3.88;100.00;99929.59;5054896;28;20063;-64
2022/03/31 09:46:50;;;;;;;16.95;6.32;;;;;;;3.84;100.00;99921.69;5051777;28;20483;-64
2022/03/31 09:49:16;;;;;;;17.08;6.50;;;;;;;3.91;100.00;99913.94;5059203;28;20040;-62
2022/03/31 09:51:45;;;;;;;17.45;6.82;;;;;;;3.85;100.00;99914.72;5053735;28;20024;-63
2022/03/31 09:54:11;;;;;;;18.52;6.78;;;;;;;3.92;100.00;99920.94;5057681;28;20056;-63
2022/03/31 09:56:39;;;;;;;17.42;6.40;;;;;;;3.87;100.00;99914.75;5052213;28;20087;-66
2022/03/31 09:59:07;;;;;;;17.27;6.57;;;;;;;3.85;100.00;99925.19;5040689;28;20029;-64
2022/03/31 10:01:33;;;;;;;17.80;7.75;;;;;;;3.86;100.00;99921.72;5057039;28;20460;-63
2022/03/31 10:03:58;;;;;;;18.48;6.57;;;;;;;3.81;100.00;99924.22;5058189;28;20507;-63
2022/03/31 10:06:25;;;;;;;16.45;6.07;;;;;;;3.87;100.00;99925.22;5051293;28;20029;-64
2022/03/31 10:08:51;;;;;;;17.50;6.60;;;;;;;3.89;100.00;99918.25;5054410;28;20094;-63
2022/03/31 10:11:21;;;;;;;17.15;6.50;;;;;;;3.94;100.00;99904.41;5059524;28;20402;-63
2022/03/31 10:14:07;;;;;;;18.42;6.93;;;;;;;4.10;100.00;99905.53;5052899;28;20463;-62
2022/03/31 10:16:50;;;;;;;16.02;5.93;;;;;;;4.22;100.00;99917.06;5056559;28;20025;-64
2022/03/31 10:19:35;;;;;;;16.98;6.10;;;;;;;4.32;100.00;99911.09;5055617;28;20491;-63
2022/03/31 10:25:08;;;;;;;16.42;6.03;;;;;;;4.59;100.00;99912.34;5058978;28;20114;-64
2022/03/31 10:27:35;;;;;;;16.58;6.30;;;;;;;4.64;100.00;99913.28;5064442;28;20028;-63
2022/03/31 10:30:17;;;;;;;17.77;6.40;;;;;;;4.61;100.00;99916.75;5060605;28;20036;-65
2022/03/31 10:32:55;;;;;;;17.20;6.87;;;;;;;4.46;100.00;99909.56;5060381;28;20429;-63
2022/03/31 10:35:31;;;;;;;16.70;6.50;;;;;;;4.45;100.00;99918.25;5061467;28;20040;-62
2022/03/31 10:38:09;;;;;;;16.92;6.50;;;;;;;4.45;100.00;99918.25;5064458;28;20020;-62
2022/03/31 10:40:38;;;;;;;17.90;6.88;;;;;;;4.45;100.00;99918.25;5062485;28;20033;-63
2022/03/31 10:43:05;;;;;;;17.42;6.78;;;;;;;4.47;100.00;99905.19;5062994;28;20048;-63
2022/03/31 10:45:42;;;;;;;17.65;6.18;;;;;;;4.53;100.00;99907.94;5061670;28;20052;-63
2022/03/31 10:48:31;;;;;;;15.82;6.50;;;;;;;4.79;100.00;99897.81;5062125;28;20032;-71
2022/03/31 10:51:15;;;;;;;17.58;6.40;;;;;;;5.00;100.00;99898.94;5057631;28;20029;-70
2022/03/31 10:53:48;;;;;;;15.57;6.00;;;;;;;5.14;100.00;99909.53;5061892;28;20075;-69
2022/03/31 10:56:24;;;;;;;16.20;6.20;;;;;;;5.24;100.00;99906.16;5062868;28;20147;-64
2022/03/31 10:59:00;;;;;;;17.10;6.32;;;;;;;5.26;100.00;99898.31;5061695;28;20426;-63
2022/03/31 11:01:31;;;;;;;16.27;6.28;;;;;;;5.18;100.00;99901.72;5058540;28;20029;-61
2022/03/31 11:04:08;;;;;;;16.35;6.13;;;;;;;5.21;100.00;99901.78;5063385;28;20025;-61
2022/03/31 11:06:45;;;;;;;15.75;5.97;;;;;;;5.13;100.00;99894.72;5062061;28;20029;-62
2022/03/31 11:09:21;;;;;;;15.60;6.05;;;;;;;5.00;100.00;99899.78;5061250;28;20484;-62
2022/03/31 11:11:53;;;;;;;14.35;5.40;;;;;;;4.89;100.00;99897.06;5063953;28;20025;-62
2022/03/31 11:14:18;;;;;;;16.13;6.30;;;;;;;4.82;100.00;99897.84;5056617;28;20025;-62
2022/03/31 11:16:45;;;;;;;15.43;6.07;;;;;;;4.89;100.00;99904.91;5063326;28;20043;-61
2022/03/31 11:19:11;;;;;;;16.65;6.10;;;;;;;5.03;100.00;99896.34;5061384;28;20025;-62
2022/03/31 11:21:42;;;;;;;16.33;6.28;;;;;;;4.97;100.00;99893.66;5062277;28;20490;-62
2022/03/31 11:24:09;;;;;;;16.40;6.20;;;;;;;5.08;100.00;99894.63;5061793;28;20388;-62
2022/03/31 11:26:46;;;;;;;16.10;6.03;;;;;;;5.24;100.00;99883.47;5062268;28;20333;-62
2022/03/31 11:29:16;;;;;;;15.05;6.00;;;;;;;5.41;100.00;99877.53;5061312;28;20342;-62